sensor_id;sensor_type;location;lat;lon;timestamp;temperature;humidity
7194;DHT22;3638;48.820;9.244;2022-10-16T00:01:16;16.20;99.90
7194;DHT22;3638;48.820;9.244;2022-10-16T00:03:47;16.20;99.90
7194;DHT22;3638;48.820;9.244;2022-10-16T00:06:16;16.20;99.90
7194;DHT22;3638;48.820;9.244;2022-10-16T00:08:45;16.30;99.90
7194;DHT22;3638;48.820;9.244;2022-10-16T00:11:13;16.20;99.90
7194;DHT22;3638;48.820;9.244;2022-10-16T00:13:43;16.20;99.90
7194;DHT22;3638;48.820;9.244;2022-10-16T00:16:12;16.20;99.90
7194;DHT22;3638;48.820;9.244;2022-10-16T00:18:41;16.20;99.90
7194;DHT22;3638;48.820;9.244;2022-10-16T00:21:12;16.10;99.90
7194;DHT22;3638;48.820;9.244;2022-10-16T00:23:40;16.10;99.90
7194;DHT22;3638;48.820;9.244;2022-10-16T00:26:10;16.10;99.90
7194;DHT22;3638;48.820;9.244;2022-10-16T00:28:38;16.10;99.90
7194;DHT22;3638;48.820;9.244;2022-10-16T00:31:07;16.00;99.90
7194;DHT22;3638;48.820;9.244;2022-10-16T00:33:37;16.00;99.90
7194;DHT22;3638;48.820;9.244;2022-10-16T00:36:07;16.00;99.90
7194;DHT22;3638;48.820;9.244;2022-10-16T00:38:36;15.90;99.90
7194;DHT22;3638;48.820;9.244;2022-10-16T00:41:04;15.90;99.90
7194;DHT22;3638;48.820;9.244;2022-10-16T00:43:38;15.80;99.90
7194;DHT22;3638;48.820;9.244;2022-10-16T00:46:13;15.80;99.90
7194;DHT22;3638;48.820;9.244;2022-10-16T00:48:45;15.80;99.90
7194;DHT22;3638;48.820;9.244;2022-10-16T00:51:20;15.70;99.90
7194;DHT22;3638;48.820;9.244;2022-10-16T00:53:48;15.70;99.90
7194;DHT22;3638;48.820;9.244;2022-10-16T00:56:16;15.80;99.90
7194;DHT22;3638;48.820;9.244;2022-10-16T00:58:43;15.70;99.90
7194;DHT22;3638;48.820;9.244;2022-10-16T01:01:10;15.60;99.90
7194;DHT22;3638;48.820;9.244;2022-10-16T01:03:38;15.70;99.90
7194;DHT22;3638;48.820;9.244;2022-10-16T01:06:21;15.60;99.90
7194;DHT22;3638;48.820;9.244;2022-10-16T01:09:02;15.60;99.90
7194;DHT22;3638;48.820;9.244;2022-10-16T01:11:41;15.60;99.90
7194;DHT22;3638;48.820;9.244;2022-10-16T01:14:19;15.60;99.90
7194;DHT22;3638;48.820;9.244;2022-10-16T01:16:53;15.60;99.90
7194;DHT22;3638;48.820;9.244;2022-10-16T01:19:36;15.70;99.90
7194;DHT22;3638;48.820;9.244;2022-10-16T01:22:12;15.70;99.90
7194;DHT22;3638;48.820;9.244;2022-10-16T01:24:43;15.70;99.90
7194;DHT22;3638;48.820;9.244;2022-10-16T01:27:15;15.70;99.90
7194;DHT22;3638;48.820;9.244;2022-10-16T01:29:50;15.70;99.90
7194;DHT22;3638;48.820;9.244;2022-10-16T01:32:25;15.70;99.90
7194;DHT22;3638;48.820;9.244;2022-10-16T01:34:59;15.70;99.90
7194;DHT22;3638;48.820;9.244;2022-10-16T01:37:34;15.70;99.90
7194;DHT22;3638;48.820;9.244;2022-10-16T01:40:07;15.70;99.90
7194;DHT22;3638;48.820;9.244;2022-10-16T01:42:39;15.70;99.90
7194;DHT22;3638;48.820;9.244;2022-10-16T01:45:10;15.70;99.90
7194;DHT22;3638;48.820;9.244;2022-10-16T01:47:40;15.70;99.90
7194;DHT22;3638;48.820;9.244;2022-10-16T01:50:09;15.70;99.90
7194;DHT22;3638;48.820;9.244;2022-10-16T01:52:39;15.70;99.90
7194;DHT22;3638;48.820;9.244;2022-10-16T01:55:09;15.70;99.90
7194;DHT22;3638;48.820;9.244;2022-10-16T01:57:41;15.70;99.90
7194;DHT22;3638;48.820;9.244;2022-10-16T02:00:12;15.70;99.90
7194;DHT22;3638;48.820;9.244;2022-10-16T02:02:42;15.70;99.90
7194;DHT22;3638;48.820;9.244;2022-10-16T02:05:16;15.80;99.90
7194;DHT22;3638;48.820;9.244;2022-10-16T02:07:45;15.70;99.90
7194;DHT22;3638;48.820;9.244;2022-10-16T02:10:12;15.70;99.90
7194;DHT22;3638;48.820;9.244;2022-10-16T02:12:44;15.70;99.90
7194;DHT22;3638;48.820;9.244;2022-10-16T02:15:13;15.70;99.90
7194;DHT22;3638;48.820;9.244;2022-10-16T02:17:40;15.70;99.90
7194;DHT22;3638;48.820;9.244;2022-10-16T02:20:08;15.60;99.90
7194;DHT22;3638;48.820;9.244;2022-10-16T02:22:39;15.70;99.90
7194;DHT22;3638;48.820;9.244;2022-10-16T02:25:10;15.70;99.90
7194;DHT22;3638;48.820;9.244;2022-10-16T02:27:45;15.60;99.90
7194;DHT22;3638;48.820;9.244;2022-10-16T02:30:20;15.60;99.90
7194;DHT22;3638;48.820;9.244;2022-10-16T02:32:51;15.60;99.90
7194;DHT22;3638;48.820;9.244;2022-10-16T02:35:20;15.60;99.90
7194;DHT22;3638;48.820;9.244;2022-10-16T02:37:48;15.60;99.90
7194;DHT22;3638;48.820;9.244;2022-10-16T02:40:17;15.70;99.90
7194;DHT22;3638;48.820;9.244;2022-10-16T02:42:50;15.60;99.90
7194;DHT22;3638;48.820;9.244;2022-10-16T02:45:18;15.60;99.90
7194;DHT22;3638;48.820;9.244;2022-10-16T02:47:45;15.60;99.90
7194;DHT22;3638;48.820;9.244;2022-10-16T02:50:12;15.60;99.90
7194;DHT22;3638;48.820;9.244;2022-10-16T02:52:39;15.70;99.90
7194;DHT22;3638;48.820;9.244;2022-10-16T02:55:07;15.60;99.90
7194;DHT22;3638;48.820;9.244;2022-10-16T02:57:34;15.50;99.90
7194;DHT22;3638;48.820;9.244;2022-10-16T03:00:04;15.60;99.90
7194;DHT22;3638;48.820;9.244;2022-10-16T03:02:32;15.60;99.90
7194;DHT22;3638;48.820;9.244;2022-10-16T03:04:58;15.60;99.90
7194;DHT22;3638;48.820;9.244;2022-10-16T03:07:25;15.60;99.90
7194;DHT22;3638;48.820;9.244;2022-10-16T03:09:52;15.60;99.90
7194;DHT22;3638;48.820;9.244;2022-10-16T03:12:20;15.60;99.90
7194;DHT22;3638;48.820;9.244;2022-10-16T03:14:47;15.60;99.90
7194;DHT22;3638;48.820;9.244;2022-10-16T03:17:15;15.60;99.90
7194;DHT22;3638;48.820;9.244;2022-10-16T03:19:42;15.60;99.90
7194;DHT22;3638;48.820;9.244;2022-10-16T03:22:09;15.50;99.90
7194;DHT22;3638;48.820;9.244;2022-10-16T03:24:36;15.40;99.90
7194;DHT22;3638;48.820;9.244;2022-10-16T03:27:03;15.50;99.90
7194;DHT22;3638;48.820;9.244;2022-10-16T03:29:30;15.50;99.90
7194;DHT22;3638;48.820;9.244;2022-10-16T03:31:58;15.40;99.90
7194;DHT22;3638;48.820;9.244;2022-10-16T03:34:27;15.50;99.90
7194;DHT22;3638;48.820;9.244;2022-10-16T03:36:54;15.40;99.90
7194;DHT22;3638;48.820;9.244;2022-10-16T03:39:21;15.40;99.90
7194;DHT22;3638;48.820;9.244;2022-10-16T03:41:48;15.40;99.90
7194;DHT22;3638;48.820;9.244;2022-10-16T03:44:15;15.30;99.90
7194;DHT22;3638;48.820;9.244;2022-10-16T03:46:42;15.30;99.90
7194;DHT22;3638;48.820;9.244;2022-10-16T03:49:09;15.30;99.90
7194;DHT22;3638;48.820;9.244;2022-10-16T03:51:37;15.30;99.90
7194;DHT22;3638;48.820;9.244;2022-10-16T03:54:04;15.30;99.90
7194;DHT22;3638;48.820;9.244;2022-10-16T03:56:31;15.30;99.90
7194;DHT22;3638;48.820;9.244;2022-10-16T03:58:58;15.30;99.90
7194;DHT22;3638;48.820;9.244;2022-10-16T04:01:25;15.40;99.90
7194;DHT22;3638;48.820;9.244;2022-10-16T04:03:52;15.30;99.90
7194;DHT22;3638;48.820;9.244;2022-10-16T04:06:19;15.30;99.90
7194;DHT22;3638;48.820;9.244;2022-10-16T04:08:47;15.30;99.90
7194;DHT22;3638;48.820;9.244;2022-10-16T04:11:14;15.30;99.90
7194;DHT22;3638;48.820;9.244;2022-10-16T04:13:41;15.20;99.90
7194;DHT22;3638;48.820;9.244;2022-10-16T04:16:07;15.20;99.90
7194;DHT22;3638;48.820;9.244;2022-10-16T04:18:34;15.20;99.90
7194;DHT22;3638;48.820;9.244;2022-10-16T04:23:32;15.20;99.90
7194;DHT22;3638;48.820;9.244;2022-10-16T04:26:01;15.20;99.90
7194;DHT22;3638;48.820;9.244;2022-10-16T04:28:28;15.20;99.90
7194;DHT22;3638;48.820;9.244;2022-10-16T04:30:55;15.20;99.90
7194;DHT22;3638;48.820;9.244;2022-10-16T04:33:22;15.20;99.90
7194;DHT22;3638;48.820;9.244;2022-10-16T04:35:56;15.30;99.90
7194;DHT22;3638;48.820;9.244;2022-10-16T04:38:23;15.30;99.90
7194;DHT22;3638;48.820;9.244;2022-10-16T04:40:51;15.30;99.90
7194;DHT22;3638;48.820;9.244;2022-10-16T04:43:20;15.30;99.90
7194;DHT22;3638;48.820;9.244;2022-10-16T04:45:47;15.30;99.90
7194;DHT22;3638;48.820;9.244;2022-10-16T04:48:16;15.30;99.90
7194;DHT22;3638;48.820;9.244;2022-10-16T04:50:43;15.40;99.90
7194;DHT22;3638;48.820;9.244;2022-10-16T04:53:09;15.40;99.90
7194;DHT22;3638;48.820;9.244;2022-10-16T04:55:36;15.40;99.90
7194;DHT22;3638;48.820;9.244;2022-10-16T04:58:04;15.50;99.90
7194;DHT22;3638;48.820;9.244;2022-10-16T05:00:33;15.50;99.90
7194;DHT22;3638;48.820;9.244;2022-10-16T05:03:00;15.40;99.90
7194;DHT22;3638;48.820;9.244;2022-10-16T05:05:27;15.40;99.90
7194;DHT22;3638;48.820;9.244;2022-10-16T05:07:54;15.40;99.90
7194;DHT22;3638;48.820;9.244;2022-10-16T05:10:21;15.60;99.90
7194;DHT22;3638;48.820;9.244;2022-10-16T05:12:48;15.20;99.90
7194;DHT22;3638;48.820;9.244;2022-10-16T05:15:15;15.10;99.90
7194;DHT22;3638;48.820;9.244;2022-10-16T05:17:43;15.10;99.90
7194;DHT22;3638;48.820;9.244;2022-10-16T05:20:13;15.20;99.90
7194;DHT22;3638;48.820;9.244;2022-10-16T05:22:47;15.20;99.90
7194;DHT22;3638;48.820;9.244;2022-10-16T05:25:14;15.20;99.90
7194;DHT22;3638;48.820;9.244;2022-10-16T05:27:41;15.20;99.90
7194;DHT22;3638;48.820;9.244;2022-10-16T05:30:08;15.30;99.90
7194;DHT22;3638;48.820;9.244;2022-10-16T05:32:36;15.30;99.90
7194;DHT22;3638;48.820;9.244;2022-10-16T05:35:04;15.30;99.90
7194;DHT22;3638;48.820;9.244;2022-10-16T05:37:32;15.30;99.90
7194;DHT22;3638;48.820;9.244;2022-10-16T05:39:59;15.30;99.90
7194;DHT22;3638;48.820;9.244;2022-10-16T05:42:26;15.30;99.90
7194;DHT22;3638;48.820;9.244;2022-10-16T05:44:53;15.20;99.90
7194;DHT22;3638;48.820;9.244;2022-10-16T05:47:20;15.20;99.90
7194;DHT22;3638;48.820;9.244;2022-10-16T05:49:47;15.20;99.90
7194;DHT22;3638;48.820;9.244;2022-10-16T05:52:15;15.30;99.90
7194;DHT22;3638;48.820;9.244;2022-10-16T05:54:42;15.30;99.90
7194;DHT22;3638;48.820;9.244;2022-10-16T05:57:09;15.30;99.90
7194;DHT22;3638;48.820;9.244;2022-10-16T05:59:36;15.30;99.90
7194;DHT22;3638;48.820;9.244;2022-10-16T06:02:03;15.20;99.90
7194;DHT22;3638;48.820;9.244;2022-10-16T06:04:30;15.00;99.90
7194;DHT22;3638;48.820;9.244;2022-10-16T06:06:58;15.00;99.90
7194;DHT22;3638;48.820;9.244;2022-10-16T06:09:28;14.80;99.90
7194;DHT22;3638;48.820;9.244;2022-10-16T06:11:54;14.80;99.90
7194;DHT22;3638;48.820;9.244;2022-10-16T06:14:21;14.80;99.90
7194;DHT22;3638;48.820;9.244;2022-10-16T06:16:48;14.90;99.90
7194;DHT22;3638;48.820;9.244;2022-10-16T06:19:15;15.00;99.90
7194;DHT22;3638;48.820;9.244;2022-10-16T06:21:43;15.10;99.90
7194;DHT22;3638;48.820;9.244;2022-10-16T06:24:10;15.20;99.90
7194;DHT22;3638;48.820;9.244;2022-10-16T06:26:38;15.30;99.90
7194;DHT22;3638;48.820;9.244;2022-10-16T06:29:05;15.40;99.90
7194;DHT22;3638;48.820;9.244;2022-10-16T06:31:32;15.30;99.90
7194;DHT22;3638;48.820;9.244;2022-10-16T06:33:59;15.30;99.90
7194;DHT22;3638;48.820;9.244;2022-10-16T06:36:27;15.20;99.90
7194;DHT22;3638;48.820;9.244;2022-10-16T06:38:54;15.30;99.90
7194;DHT22;3638;48.820;9.244;2022-10-16T06:41:22;15.40;99.90
7194;DHT22;3638;48.820;9.244;2022-10-16T06:43:51;15.50;99.90
7194;DHT22;3638;48.820;9.244;2022-10-16T06:46:20;15.70;99.90
7194;DHT22;3638;48.820;9.244;2022-10-16T06:51:17;15.90;99.90
7194;DHT22;3638;48.820;9.244;2022-10-16T06:53:46;16.00;99.90
7194;DHT22;3638;48.820;9.244;2022-10-16T06:56:16;16.10;99.90
7194;DHT22;3638;48.820;9.244;2022-10-16T06:58:44;16.30;99.90
7194;DHT22;3638;48.820;9.244;2022-10-16T07:01:14;16.40;99.90
7194;DHT22;3638;48.820;9.244;2022-10-16T07:03:42;16.30;99.90
7194;DHT22;3638;48.820;9.244;2022-10-16T07:06:12;16.30;99.90
7194;DHT22;3638;48.820;9.244;2022-10-16T07:08:42;16.10;99.90
7194;DHT22;3638;48.820;9.244;2022-10-16T07:11:12;16.00;99.90
7194;DHT22;3638;48.820;9.244;2022-10-16T07:13:41;15.80;99.90
7194;DHT22;3638;48.820;9.244;2022-10-16T07:16:10;15.90;99.90
7194;DHT22;3638;48.820;9.244;2022-10-16T07:18:40;15.80;99.90
7194;DHT22;3638;48.820;9.244;2022-10-16T07:21:10;15.90;99.90
7194;DHT22;3638;48.820;9.244;2022-10-16T07:23:38;16.00;99.90
7194;DHT22;3638;48.820;9.244;2022-10-16T07:26:06;16.10;99.90
7194;DHT22;3638;48.820;9.244;2022-10-16T07:28:33;16.20;99.90
7194;DHT22;3638;48.820;9.244;2022-10-16T07:31:01;16.20;99.90
7194;DHT22;3638;48.820;9.244;2022-10-16T07:33:35;16.20;99.90
7194;DHT22;3638;48.820;9.244;2022-10-16T07:36:02;16.40;99.90
7194;DHT22;3638;48.820;9.244;2022-10-16T07:38:29;16.30;99.90
7194;DHT22;3638;48.820;9.244;2022-10-16T07:40:57;16.40;99.90
7194;DHT22;3638;48.820;9.244;2022-10-16T07:43:25;16.40;99.90
7194;DHT22;3638;48.820;9.244;2022-10-16T07:45:52;16.40;99.90
7194;DHT22;3638;48.820;9.244;2022-10-16T07:48:21;16.40;99.90
7194;DHT22;3638;48.820;9.244;2022-10-16T07:50:50;16.40;99.90
7194;DHT22;3638;48.820;9.244;2022-10-16T07:53:16;16.40;99.90
7194;DHT22;3638;48.820;9.244;2022-10-16T07:55:43;16.40;99.90
7194;DHT22;3638;48.820;9.244;2022-10-16T07:58:10;16.50;99.90
7194;DHT22;3638;48.820;9.244;2022-10-16T08:00:37;17.50;99.90
7194;DHT22;3638;48.820;9.244;2022-10-16T08:03:04;16.70;99.90
7194;DHT22;3638;48.820;9.244;2022-10-16T08:05:32;16.80;99.90
7194;DHT22;3638;48.820;9.244;2022-10-16T08:08:01;16.90;99.90
7194;DHT22;3638;48.820;9.244;2022-10-16T08:10:29;17.10;99.90
7194;DHT22;3638;48.820;9.244;2022-10-16T08:12:57;17.10;99.90
7194;DHT22;3638;48.820;9.244;2022-10-16T08:15:24;17.20;99.90
7194;DHT22;3638;48.820;9.244;2022-10-16T08:17:55;17.30;99.90
7194;DHT22;3638;48.820;9.244;2022-10-16T08:20:24;17.40;99.90
7194;DHT22;3638;48.820;9.244;2022-10-16T08:22:51;17.40;99.90
7194;DHT22;3638;48.820;9.244;2022-10-16T08:25:20;17.50;99.90
7194;DHT22;3638;48.820;9.244;2022-10-16T08:27:47;17.60;99.90
7194;DHT22;3638;48.820;9.244;2022-10-16T08:30:15;17.80;99.90
7194;DHT22;3638;48.820;9.244;2022-10-16T08:32:43;18.00;99.90
7194;DHT22;3638;48.820;9.244;2022-10-16T08:35:10;18.00;99.90
7194;DHT22;3638;48.820;9.244;2022-10-16T08:37:38;18.20;99.90
7194;DHT22;3638;48.820;9.244;2022-10-16T08:40:10;18.50;99.90
7194;DHT22;3638;48.820;9.244;2022-10-16T08:42:56;18.50;99.90
7194;DHT22;3638;48.820;9.244;2022-10-16T08:45:40;18.60;99.90
7194;DHT22;3638;48.820;9.244;2022-10-16T08:48:20;18.90;99.90
7194;DHT22;3638;48.820;9.244;2022-10-16T08:50:51;19.10;99.90
7194;DHT22;3638;48.820;9.244;2022-10-16T08:53:20;19.10;99.90
7194;DHT22;3638;48.820;9.244;2022-10-16T08:55:51;19.20;99.90
7194;DHT22;3638;48.820;9.244;2022-10-16T08:58:21;19.40;99.90
7194;DHT22;3638;48.820;9.244;2022-10-16T09:00:53;19.20;99.90
7194;DHT22;3638;48.820;9.244;2022-10-16T09:03:40;19.10;99.90
7194;DHT22;3638;48.820;9.244;2022-10-16T09:06:29;19.10;99.90
7194;DHT22;3638;48.820;9.244;2022-10-16T09:09:10;19.10;99.90
7194;DHT22;3638;48.820;9.244;2022-10-16T09:11:50;19.20;99.90
7194;DHT22;3638;48.820;9.244;2022-10-16T09:14:54;19.20;99.90
7194;DHT22;3638;48.820;9.244;2022-10-16T09:17:38;19.20;99.90
7194;DHT22;3638;48.820;9.244;2022-10-16T09:20:26;19.30;99.90
7194;DHT22;3638;48.820;9.244;2022-10-16T09:23:10;19.30;99.90
7194;DHT22;3638;48.820;9.244;2022-10-16T09:25:43;19.30;99.90
7194;DHT22;3638;48.820;9.244;2022-10-16T09:28:13;19.30;99.90
7194;DHT22;3638;48.820;9.244;2022-10-16T09:30:42;19.20;99.90
7194;DHT22;3638;48.820;9.244;2022-10-16T09:33:11;19.30;99.90
7194;DHT22;3638;48.820;9.244;2022-10-16T09:35:40;19.30;99.90
7194;DHT22;3638;48.820;9.244;2022-10-16T09:38:20;19.20;99.90
7194;DHT22;3638;48.820;9.244;2022-10-16T09:40:48;19.10;99.90
7194;DHT22;3638;48.820;9.244;2022-10-16T09:43:21;19.00;99.90
7194;DHT22;3638;48.820;9.244;2022-10-16T09:45:56;19.10;99.90
7194;DHT22;3638;48.820;9.244;2022-10-16T09:48:28;19.10;99.90
7194;DHT22;3638;48.820;9.244;2022-10-16T09:51:00;19.00;99.90
7194;DHT22;3638;48.820;9.244;2022-10-16T09:53:42;19.10;99.90
7194;DHT22;3638;48.820;9.244;2022-10-16T09:56:12;19.00;99.90
7194;DHT22;3638;48.820;9.244;2022-10-16T09:58:50;19.10;99.90
7194;DHT22;3638;48.820;9.244;2022-10-16T10:01:20;19.20;99.90
7194;DHT22;3638;48.820;9.244;2022-10-16T10:03:47;19.40;99.90
7194;DHT22;3638;48.820;9.244;2022-10-16T10:06:24;19.60;99.90
7194;DHT22;3638;48.820;9.244;2022-10-16T10:09:06;19.60;99.90
7194;DHT22;3638;48.820;9.244;2022-10-16T10:11:43;19.80;99.90
7194;DHT22;3638;48.820;9.244;2022-10-16T10:14:21;19.90;99.90
7194;DHT22;3638;48.820;9.244;2022-10-16T10:17:01;19.90;99.90
7194;DHT22;3638;48.820;9.244;2022-10-16T10:19:38;20.10;99.90
7194;DHT22;3638;48.820;9.244;2022-10-16T10:25:19;20.30;99.90
7194;DHT22;3638;48.820;9.244;2022-10-16T10:28:08;20.40;99.90
7194;DHT22;3638;48.820;9.244;2022-10-16T10:30:50;20.50;99.90
7194;DHT22;3638;48.820;9.244;2022-10-16T10:33:30;20.50;99.90
7194;DHT22;3638;48.820;9.244;2022-10-16T10:36:16;20.60;99.90
7194;DHT22;3638;48.820;9.244;2022-10-16T10:38:52;20.70;99.90
7194;DHT22;3638;48.820;9.244;2022-10-16T10:41:48;20.80;99.90
7194;DHT22;3638;48.820;9.244;2022-10-16T10:45:03;21.00;99.90
7194;DHT22;3638;48.820;9.244;2022-10-16T10:47:47;21.20;99.90
7194;DHT22;3638;48.820;9.244;2022-10-16T10:50:26;21.60;99.90
7194;DHT22;3638;48.820;9.244;2022-10-16T10:53:05;21.70;99.90
7194;DHT22;3638;48.820;9.244;2022-10-16T10:55:42;21.70;99.90
7194;DHT22;3638;48.820;9.244;2022-10-16T11:01:32;21.90;99.90
7194;DHT22;3638;48.820;9.244;2022-10-16T11:04:22;21.80;99.90
7194;DHT22;3638;48.820;9.244;2022-10-16T11:07:00;21.80;99.90
7194;DHT22;3638;48.820;9.244;2022-10-16T11:09:34;21.80;99.90
7194;DHT22;3638;48.820;9.244;2022-10-16T11:12:09;21.70;99.90
7194;DHT22;3638;48.820;9.244;2022-10-16T11:17:13;21.80;99.90
7194;DHT22;3638;48.820;9.244;2022-10-16T11:19:46;21.70;99.90
7194;DHT22;3638;48.820;9.244;2022-10-16T11:22:20;21.60;99.90
7194;DHT22;3638;48.820;9.244;2022-10-16T11:24:54;21.60;99.90
7194;DHT22;3638;48.820;9.244;2022-10-16T11:27:30;21.50;99.90
7194;DHT22;3638;48.820;9.244;2022-10-16T11:30:02;21.50;99.90
7194;DHT22;3638;48.820;9.244;2022-10-16T11:32:35;21.50;99.90
7194;DHT22;3638;48.820;9.244;2022-10-16T11:35:19;21.60;99.90
7194;DHT22;3638;48.820;9.244;2022-10-16T11:37:52;20.40;99.90
7194;DHT22;3638;48.820;9.244;2022-10-16T11:40:23;21.80;99.90
7194;DHT22;3638;48.820;9.244;2022-10-16T11:42:59;21.80;99.90
7194;DHT22;3638;48.820;9.244;2022-10-16T11:45:34;21.80;99.90
7194;DHT22;3638;48.820;9.244;2022-10-16T11:48:12;21.80;99.90
7194;DHT22;3638;48.820;9.244;2022-10-16T11:50:50;22.00;99.90
7194;DHT22;3638;48.820;9.244;2022-10-16T11:53:29;22.10;99.90
7194;DHT22;3638;48.820;9.244;2022-10-16T11:56:04;22.10;99.90
7194;DHT22;3638;48.820;9.244;2022-10-16T11:58:35;22.10;99.90
7194;DHT22;3638;48.820;9.244;2022-10-16T12:01:17;22.20;99.90
7194;DHT22;3638;48.820;9.244;2022-10-16T12:03:48;22.30;99.90
7194;DHT22;3638;48.820;9.244;2022-10-16T12:06:31;22.40;99.90
7194;DHT22;3638;48.820;9.244;2022-10-16T12:09:03;22.30;99.90
7194;DHT22;3638;48.820;9.244;2022-10-16T12:11:36;22.40;99.90
7194;DHT22;3638;48.820;9.244;2022-10-16T12:14:06;22.60;99.90
7194;DHT22;3638;48.820;9.244;2022-10-16T12:16:52;22.60;99.90
7194;DHT22;3638;48.820;9.244;2022-10-16T12:19:21;22.60;99.90
7194;DHT22;3638;48.820;9.244;2022-10-16T12:21:51;22.60;99.90
7194;DHT22;3638;48.820;9.244;2022-10-16T12:24:31;22.50;99.90
7194;DHT22;3638;48.820;9.244;2022-10-16T12:27:02;22.50;99.90
7194;DHT22;3638;48.820;9.244;2022-10-16T12:29:34;22.40;99.90
7194;DHT22;3638;48.820;9.244;2022-10-16T12:32:04;22.40;99.90
7194;DHT22;3638;48.820;9.244;2022-10-16T12:34:38;22.40;99.90
7194;DHT22;3638;48.820;9.244;2022-10-16T12:37:13;22.40;99.90
7194;DHT22;3638;48.820;9.244;2022-10-16T12:39:43;22.40;99.90
7194;DHT22;3638;48.820;9.244;2022-10-16T12:42:22;22.50;99.90
7194;DHT22;3638;48.820;9.244;2022-10-16T12:44:57;22.50;99.90
7194;DHT22;3638;48.820;9.244;2022-10-16T12:47:37;22.70;99.90
7194;DHT22;3638;48.820;9.244;2022-10-16T12:50:32;22.60;99.90
7194;DHT22;3638;48.820;9.244;2022-10-16T12:53:02;22.60;99.90
7194;DHT22;3638;48.820;9.244;2022-10-16T12:55:42;22.60;99.90
7194;DHT22;3638;48.820;9.244;2022-10-16T12:58:30;23.00;99.90
7194;DHT22;3638;48.820;9.244;2022-10-16T13:01:23;22.60;99.90
7194;DHT22;3638;48.820;9.244;2022-10-16T13:04:37;22.60;99.90
7194;DHT22;3638;48.820;9.244;2022-10-16T13:07:40;22.60;99.90
7194;DHT22;3638;48.820;9.244;2022-10-16T13:10:20;22.40;99.90
7194;DHT22;3638;48.820;9.244;2022-10-16T13:13:04;22.30;99.90
7194;DHT22;3638;48.820;9.244;2022-10-16T13:18:40;22.40;99.90
7194;DHT22;3638;48.820;9.244;2022-10-16T13:21:21;22.50;99.90
7194;DHT22;3638;48.820;9.244;2022-10-16T13:23:59;22.70;99.90
7194;DHT22;3638;48.820;9.244;2022-10-16T13:26:36;22.90;99.90
7194;DHT22;3638;48.820;9.244;2022-10-16T13:29:09;23.00;99.90
7194;DHT22;3638;48.820;9.244;2022-10-16T13:31:38;23.20;99.90
7194;DHT22;3638;48.820;9.244;2022-10-16T13:34:05;23.30;99.90
7194;DHT22;3638;48.820;9.244;2022-10-16T13:36:42;23.30;99.90
7194;DHT22;3638;48.820;9.244;2022-10-16T13:39:13;23.30;99.90
7194;DHT22;3638;48.820;9.244;2022-10-16T13:41:42;23.10;99.90
7194;DHT22;3638;48.820;9.244;2022-10-16T13:44:17;23.20;99.90
7194;DHT22;3638;48.820;9.244;2022-10-16T13:46:46;23.20;99.90
7194;DHT22;3638;48.820;9.244;2022-10-16T13:49:15;23.20;99.90
7194;DHT22;3638;48.820;9.244;2022-10-16T13:51:54;23.20;99.90
7194;DHT22;3638;48.820;9.244;2022-10-16T13:54:22;23.20;99.90
7194;DHT22;3638;48.820;9.244;2022-10-16T13:56:49;23.20;99.90
7194;DHT22;3638;48.820;9.244;2022-10-16T13:59:25;23.20;99.90
7194;DHT22;3638;48.820;9.244;2022-10-16T14:01:55;23.10;99.90
7194;DHT22;3638;48.820;9.244;2022-10-16T14:04:31;23.00;99.90
7194;DHT22;3638;48.820;9.244;2022-10-16T14:06:59;22.90;99.90
7194;DHT22;3638;48.820;9.244;2022-10-16T14:09:27;22.90;99.90
7194;DHT22;3638;48.820;9.244;2022-10-16T14:11:57;22.80;99.90
7194;DHT22;3638;48.820;9.244;2022-10-16T14:14:33;22.70;99.90
7194;DHT22;3638;48.820;9.244;2022-10-16T14:17:02;22.50;99.90
7194;DHT22;3638;48.820;9.244;2022-10-16T14:19:30;22.40;99.90
7194;DHT22;3638;48.820;9.244;2022-10-16T14:22:01;22.40;99.90
7194;DHT22;3638;48.820;9.244;2022-10-16T14:24:32;22.30;99.90
7194;DHT22;3638;48.820;9.244;2022-10-16T14:27:00;22.40;99.90
7194;DHT22;3638;48.820;9.244;2022-10-16T14:29:29;22.30;99.90
7194;DHT22;3638;48.820;9.244;2022-10-16T14:31:58;22.20;99.90
7194;DHT22;3638;48.820;9.244;2022-10-16T14:34:28;22.20;99.90
7194;DHT22;3638;48.820;9.244;2022-10-16T14:36:59;22.20;99.90
7194;DHT22;3638;48.820;9.244;2022-10-16T14:39:32;22.10;99.90
7194;DHT22;3638;48.820;9.244;2022-10-16T14:41:59;22.10;99.90
7194;DHT22;3638;48.820;9.244;2022-10-16T14:44:32;22.10;99.90
7194;DHT22;3638;48.820;9.244;2022-10-16T14:47:08;22.10;99.90
7194;DHT22;3638;48.820;9.244;2022-10-16T14:49:36;22.10;99.90
7194;DHT22;3638;48.820;9.244;2022-10-16T14:52:08;22.20;99.90
7194;DHT22;3638;48.820;9.244;2022-10-16T14:54:36;22.30;99.90
7194;DHT22;3638;48.820;9.244;2022-10-16T14:57:03;22.20;99.90
7194;DHT22;3638;48.820;9.244;2022-10-16T14:59:36;22.20;99.90
7194;DHT22;3638;48.820;9.244;2022-10-16T15:02:18;22.20;99.90
7194;DHT22;3638;48.820;9.244;2022-10-16T15:04:48;22.20;99.90
7194;DHT22;3638;48.820;9.244;2022-10-16T15:07:15;22.10;99.90
7194;DHT22;3638;48.820;9.244;2022-10-16T15:09:42;22.00;99.90
7194;DHT22;3638;48.820;9.244;2022-10-16T15:12:09;22.00;99.90
7194;DHT22;3638;48.820;9.244;2022-10-16T15:14:37;22.00;99.90
7194;DHT22;3638;48.820;9.244;2022-10-16T15:17:04;22.00;99.90
7194;DHT22;3638;48.820;9.244;2022-10-16T15:19:31;22.00;99.90
7194;DHT22;3638;48.820;9.244;2022-10-16T15:21:59;22.00;99.90
7194;DHT22;3638;48.820;9.244;2022-10-16T15:24:26;22.10;99.90
7194;DHT22;3638;48.820;9.244;2022-10-16T15:26:53;22.00;99.90
7194;DHT22;3638;48.820;9.244;2022-10-16T15:29:20;22.00;99.90
7194;DHT22;3638;48.820;9.244;2022-10-16T15:31:48;22.00;99.90
7194;DHT22;3638;48.820;9.244;2022-10-16T15:34:16;21.80;99.90
7194;DHT22;3638;48.820;9.244;2022-10-16T15:36:44;21.90;99.90
7194;DHT22;3638;48.820;9.244;2022-10-16T15:39:13;21.80;99.90
7194;DHT22;3638;48.820;9.244;2022-10-16T15:41:41;21.60;99.90
7194;DHT22;3638;48.820;9.244;2022-10-16T15:44:09;21.60;99.90
7194;DHT22;3638;48.820;9.244;2022-10-16T15:46:36;21.50;99.90
7194;DHT22;3638;48.820;9.244;2022-10-16T15:49:04;21.50;99.90
7194;DHT22;3638;48.820;9.244;2022-10-16T15:51:32;21.40;99.90
7194;DHT22;3638;48.820;9.244;2022-10-16T15:53:59;21.30;99.90
7194;DHT22;3638;48.820;9.244;2022-10-16T15:56:27;21.40;99.90
7194;DHT22;3638;48.820;9.244;2022-10-16T15:58:56;21.40;99.90
7194;DHT22;3638;48.820;9.244;2022-10-16T16:01:23;21.30;99.90
7194;DHT22;3638;48.820;9.244;2022-10-16T16:03:52;21.30;99.90
7194;DHT22;3638;48.820;9.244;2022-10-16T16:06:21;21.30;99.90
7194;DHT22;3638;48.820;9.244;2022-10-16T16:08:49;21.20;99.90
7194;DHT22;3638;48.820;9.244;2022-10-16T16:11:17;21.10;99.90
7194;DHT22;3638;48.820;9.244;2022-10-16T16:13:44;21.10;99.90
7194;DHT22;3638;48.820;9.244;2022-10-16T16:16:13;21.00;99.90
7194;DHT22;3638;48.820;9.244;2022-10-16T16:18:42;20.90;99.90
7194;DHT22;3638;48.820;9.244;2022-10-16T16:21:10;20.80;99.90
7194;DHT22;3638;48.820;9.244;2022-10-16T16:23:39;20.70;99.90
7194;DHT22;3638;48.820;9.244;2022-10-16T16:26:07;20.50;99.90
7194;DHT22;3638;48.820;9.244;2022-10-16T16:28:36;20.30;99.90
7194;DHT22;3638;48.820;9.244;2022-10-16T16:31:03;20.20;99.90
7194;DHT22;3638;48.820;9.244;2022-10-16T16:33:30;19.90;99.90
7194;DHT22;3638;48.820;9.244;2022-10-16T16:35:58;19.90;99.90
7194;DHT22;3638;48.820;9.244;2022-10-16T16:38:25;19.80;99.90
7194;DHT22;3638;48.820;9.244;2022-10-16T16:40:54;19.70;99.90
7194;DHT22;3638;48.820;9.244;2022-10-16T16:43:23;19.60;99.90
7194;DHT22;3638;48.820;9.244;2022-10-16T16:45:51;19.70;99.90